Time;durP1;ratioP1;P1;durP2;ratioP2;P2;SDS_P1;SDS_P2;PMS_P1;PMS_P2;Temp;Humidity;BMP_temperature;BMP_pressure;BME280_temperature;BME280_humidity;BME280_pressure;Samples;Min_cycle;Max_cycle;Signal;HPM_P1;HPM_P2
2022/01/17 05:38:46;;;;;;;22.32;13.25;;;;;;;-2.56;74.55;99627.55;1680325;85;21137;-36
2022/01/17 05:41:12;;;;;;;19.73;11.50;;;;;;;-2.52;74.45;99628.16;1679009;84;20989;-36
2022/01/17 05:43:39;;;;;;;23.98;11.12;;;;;;;-2.50;74.51;99627.80;1694389;84;21109;-37
2022/01/17 05:46:06;;;;;;;22.05;11.28;;;;;;;-2.49;74.58;99621.48;1693779;84;21005;-43
2022/01/17 05:48:33;;;;;;;21.33;10.90;;;;;;;-2.44;73.88;99618.67;1682687;84;21028;-37
2022/01/17 05:50:59;;;;;;;26.57;11.05;;;;;;;-2.40;73.91;99618.41;1686594;84;21489;-43
2022/01/17 05:53:26;;;;;;;20.88;11.35;;;;;;;-2.38;73.64;99612.05;1687761;84;21089;-37
2022/01/17 05:55:53;;;;;;;20.92;10.93;;;;;;;-2.37;73.27;99590.36;1682671;84;20987;-37
2022/01/17 05:58:20;;;;;;;19.23;9.70;;;;;;;-2.37;73.18;99582.67;1673071;84;21054;-43
2022/01/17 06:00:47;;;;;;;16.02;9.53;;;;;;;-2.38;73.42;99587.30;1680506;84;21075;-43
2022/01/17 06:03:14;;;;;;;21.80;10.03;;;;;;;-2.39;73.39;99571.47;1671255;84;21090;-43
2022/01/17 06:05:40;;;;;;;16.42;10.08;;;;;;;-2.39;73.26;99565.06;1656252;84;21504;-43
2022/01/17 06:08:08;;;;;;;21.20;10.80;;;;;;;-2.38;72.97;99557.84;1673471;84;21741;-43
2022/01/17 06:10:36;;;;;;;20.82;11.53;;;;;;;-2.36;72.71;99542.55;1670873;84;21104;-43
2022/01/17 06:13:02;;;;;;;17.85;9.40;;;;;;;-2.33;73.45;99523.44;1671160;84;21098;-43
2022/01/17 06:15:31;;;;;;;20.57;10.00;;;;;;;-2.31;74.05;99513.73;1672174;84;21806;-43
2022/01/17 06:17:58;;;;;;;19.15;10.18;;;;;;;-2.30;73.73;99515.47;1677326;84;21085;-36
2022/01/17 06:20:24;;;;;;;21.02;10.75;;;;;;;-2.28;73.61;99518.95;1674615;84;20997;-36
2022/01/17 06:22:52;;;;;;;25.92;11.10;;;;;;;-2.26;73.35;99517.34;1669416;84;21068;-37
2022/01/17 06:25:19;;;;;;;16.55;10.38;;;;;;;-2.23;73.34;99520.01;1670363;84;21058;-37
2022/01/17 06:27:51;;;;;;;;;;;;;;;-2.21;72.59;99504.27;1663643;84;21583;-35
2022/01/17 06:33:57;;;;;;;15.18;9.30;;;;;;;-2.12;71.04;99489.67;1667772;84;21607;-35
2022/01/17 06:40:33;;;;;;;23.32;11.05;;;;;;;-1.97;71.18;99466.27;1630714;84;21312;-38
2022/01/17 06:50:39;;;;;;;21.42;10.25;;;;;;;-1.75;69.62;99477.77;1618554;86;21527;-35
2022/01/17 06:53:12;;;;;;;22.77;9.68;;;;;;;-1.69;69.45;99451.06;1618335;86;21652;-36
2022/01/17 06:55:39;;;;;;;20.20;9.95;;;;;;;-1.64;69.44;99439.69;1620196;86;21070;-43
2022/01/17 06:58:06;;;;;;;21.20;10.23;;;;;;;-1.61;68.92;99434.27;1620158;86;21388;-43
2022/01/17 07:00:41;;;;;;;24.50;10.65;;;;;;;-1.58;68.50;99421.94;1594002;87;21464;-42
2022/01/17 07:03:26;;;;;;;19.45;10.43;;;;;;;-1.54;68.20;99419.08;1625798;86;21701;-42
2022/01/17 07:05:59;;;;;;;18.98;10.48;;;;;;;-1.52;68.54;99402.91;1622710;86;20985;-42
2022/01/17 07:08:25;;;;;;;;;;;;;;;-1.49;68.37;99394.45;1612565;87;21620;-42
2022/01/17 07:11:04;;;;;;;18.20;11.12;;;;;;;-1.47;68.49;99417.17;1609847;87;20328;-43
2022/01/17 07:13:43;;;;;;;22.87;10.68;;;;;;;-1.45;68.59;99432.20;1601492;87;21225;-36
2022/01/17 07:16:41;;;;;;;23.57;11.25;;;;;;;-1.43;68.62;99443.41;1614087;86;21168;-35
2022/01/17 07:32:46;;;;;;;19.75;10.48;;;;;;;-1.27;68.22;99420.02;1628165;86;21652;-43
2022/01/17 07:35:55;;;;;;;22.05;11.45;;;;;;;-1.28;67.85;99404.13;1617736;86;21567;-43
2022/01/17 07:39:22;;;;;;;21.77;11.35;;;;;;;-1.29;68.36;99378.42;1613798;87;21684;-43
2022/01/17 07:46:03;;;;;;;19.57;10.80;;;;;;;-1.31;68.45;99371.09;1656548;84;20154;-36
2022/01/17 07:53:58;;;;;;;19.05;9.90;;;;;;;-1.31;68.47;99409.59;1652290;85;21126;-36
2022/01/17 07:57:45;;;;;;;20.52;11.18;;;;;;;-1.30;69.10;99428.87;1642833;85;21134;-43
2022/01/17 08:01:20;;;;;;;23.87;11.75;;;;;;;-1.29;68.62;99398.54;1656903;84;21110;-38
2022/01/17 08:08:21;;;;;;;26.20;12.43;;;;;;;-1.28;69.11;99350.23;1654697;84;21101;-43
2022/01/17 08:20:14;;;;;;;21.52;11.57;;;;;;;-1.24;69.43;99315.28;1652855;84;21029;-43
2022/01/17 08:23:05;;;;;;;26.60;12.98;;;;;;;-1.20;69.46;99304.30;1637624;85;21073;-43
2022/01/17 08:26:14;;;;;;;23.90;12.75;;;;;;;-1.19;69.93;99295.77;1659804;84;21114;-43
2022/01/17 08:36:38;;;;;;;25.12;12.82;;;;;;;-1.13;69.77;99280.12;1652151;85;21134;-43
2022/01/17 08:40:12;;;;;;;22.50;14.03;;;;;;;-1.03;70.01;99270.15;1651705;85;21968;-36
2022/01/17 08:42:49;;;;;;;36.15;14.63;;;;;;;-0.97;69.40;99258.78;1658399;85;21738;-36
2022/01/17 08:45:16;;;;;;;28.65;13.15;;;;;;;-0.93;69.60;99244.80;1650651;85;21077;-43
2022/01/17 08:47:46;;;;;;;23.38;13.00;;;;;;;-0.89;70.00;99247.88;1651623;85;21142;-36
2022/01/17 08:50:12;;;;;;;28.42;13.75;;;;;;;-0.86;69.31;99245.42;1660491;84;21055;-36
2022/01/17 08:52:38;;;;;;;25.23;12.78;;;;;;;-0.86;69.29;99222.72;1673556;84;21621;-36
2022/01/17 08:55:05;;;;;;;24.92;13.05;;;;;;;-0.86;69.45;99223.59;1668505;84;21037;-36
2022/01/17 08:57:33;;;;;;;25.05;13.50;;;;;;;-0.84;69.35;99220.64;1665708;84;21700;-36
2022/01/17 09:00:01;;;;;;;25.52;13.03;;;;;;;-0.79;69.60;99220.77;1630865;86;21074;-36
2022/01/17 09:02:28;;;;;;;26.12;13.83;;;;;;;-0.75;69.15;99213.63;1654288;84;21073;-43
2022/01/17 09:04:54;;;;;;;32.03;15.05;;;;;;;-0.74;69.46;99204.21;1659803;84;21034;-37
2022/01/17 09:07:23;;;;;;;24.55;13.80;;;;;;;-0.69;69.66;99212.92;1654185;84;21096;-43
2022/01/17 09:09:50;;;;;;;25.55;14.05;;;;;;;-0.67;69.74;99211.25;1655509;84;21296;-43
2022/01/17 09:12:17;;;;;;;23.00;13.28;;;;;;;-0.65;69.70;99210.45;1653425;84;21449;-37
2022/01/17 09:14:45;;;;;;;26.02;12.78;;;;;;;-0.65;69.38;99203.16;1651747;84;21845;-37
2022/01/17 09:17:12;;;;;;;24.45;14.40;;;;;;;-0.66;69.58;99205.28;1650608;84;21996;-44
2022/01/17 09:20:15;;;;;;;26.45;13.78;;;;;;;-0.66;70.07;99207.44;1657536;84;21025;-44
2022/01/17 09:23:30;;;;;;;28.73;15.20;;;;;;;-0.65;69.88;99199.31;1659589;84;21081;-36
2022/01/17 09:26:59;;;;;;;32.70;14.38;;;;;;;-0.64;69.63;99186.53;1659588;84;21615;-36
2022/01/17 09:29:49;;;;;;;26.85;14.63;;;;;;;-0.60;70.25;99177.19;1666606;84;21002;-43
2022/01/17 09:32:33;;;;;;;26.35;12.47;;;;;;;-0.55;70.20;99176.89;1641465;84;21093;-42
2022/01/17 09:35:12;;;;;;;23.10;12.60;;;;;;;-0.51;70.02;99163.72;1642958;84;21323;-43
2022/01/17 09:37:45;;;;;;;25.82;12.68;;;;;;;-0.48;69.69;99154.80;1632396;86;21039;-44
2022/01/17 09:40:11;;;;;;;26.82;13.28;;;;;;;-0.48;69.60;99145.38;1639435;86;21107;-43
2022/01/17 09:42:38;;;;;;;25.72;13.22;;;;;;;-0.46;69.59;99144.16;1629143;86;21796;-43
2022/01/17 09:45:11;;;;;;;24.27;12.60;;;;;;;-0.45;69.69;99133.91;1621062;86;21027;-43
2022/01/17 09:47:45;;;;;;;35.52;15.23;;;;;;;-0.42;69.58;99127.97;1651001;85;21376;-36
2022/01/17 09:50:33;;;;;;;23.57;12.43;;;;;;;-0.40;70.05;99118.20;1646124;85;21049;-36
2022/01/17 09:52:53;;;;;;;24.15;13.93;;;;;;;-0.34;69.64;99126.05;1642035;85;21383;-35
2022/01/17 09:55:24;;;;;;;28.27;13.58;;;;;;;-0.31;69.26;99107.25;1671048;84;21006;-36
2022/01/17 09:58:00;;;;;;;23.12;13.25;;;;;;;-0.29;69.21;99114.58;1659956;84;21045;-36
2022/01/17 10:00:29;;;;;;;24.77;13.88;;;;;;;-0.24;69.20;99112.13;1647489;84;21496;-37
2022/01/17 10:03:02;;;;;;;26.27;12.60;;;;;;;-0.20;69.46;99102.37;1650974;84;21006;-43
2022/01/17 10:05:28;;;;;;;26.25;13.43;;;;;;;-0.15;68.96;99102.08;1648443;84;21142;-42
2022/01/17 10:08:20;;;;;;;21.45;12.88;;;;;;;-0.11;69.41;99087.18;1649704;84;21489;-36
2022/01/17 10:11:18;;;;;;;25.90;12.98;;;;;;;-0.02;69.11;99083.09;1651485;84;21014;-36
2022/01/17 10:15:01;;;;;;;26.93;13.90;;;;;;;0.08;68.82;99083.31;1631984;85;21123;-36
2022/01/17 10:36:49;;;;;;;24.75;13.83;;;;;;;1.28;65.22;99037.22;1559210;86;21073;-43
2022/01/17 10:39:17;;;;;;;23.40;14.33;;;;;;;1.41;65.34;99013.38;1643833;84;21630;-43
2022/01/17 10:41:50;;;;;;;22.98;14.13;;;;;;;1.59;64.48;98996.91;1665281;84;21046;-35
2022/01/17 10:44:29;;;;;;;;;;;;;;;1.72;64.11;98987.64;1654468;85;21018;-36
2022/01/17 10:47:18;;;;;;;23.95;12.93;;;;;;;1.96;63.96;98985.81;1643975;85;20282;-45
2022/01/17 10:50:08;;;;;;;25.10;13.70;;;;;;;2.33;63.12;98974.27;1653626;85;21897;-41
2022/01/17 10:52:43;;;;;;;22.22;12.45;;;;;;;2.51;62.66;98976.20;1612005;85;21097;-35
2022/01/17 10:55:19;;;;;;;;;;;;;;;2.39;61.76;98954.98;1656087;84;21473;-42
2022/01/17 10:57:49;;;;;;;25.20;12.90;;;;;;;2.18;62.74;98937.08;1654875;84;20163;-42
2022/01/17 11:00:46;;;;;;;30.60;14.28;;;;;;;1.97;63.30;98932.51;1655700;84;21884;-36
2022/01/17 11:03:23;;;;;;;29.07;13.90;;;;;;;1.80;64.10;98937.05;1658203;85;21786;-42
2022/01/17 11:05:55;;;;;;;34.78;16.02;;;;;;;1.64;64.83;98931.23;1660065;85;21031;-36
2022/01/17 11:08:25;;;;;;;28.20;14.68;;;;;;;1.59;65.48;98932.88;1656902;84;21609;-45
2022/01/17 11:10:57;;;;;;;25.72;14.23;;;;;;;1.60;65.70;98941.91;1652070;84;21085;-38
2022/01/17 11:13:48;;;;;;;25.27;14.60;;;;;;;1.97;65.67;98935.98;1652686;84;21086;-38
2022/01/17 11:16:32;;;;;;;27.70;14.30;;;;;;;2.50;64.62;98921.54;1655064;85;21011;-38
2022/01/17 11:20:01;;;;;;;30.10;15.35;;;;;;;2.75;63.08;98926.94;1651056;85;21023;-45
2022/01/17 11:22:25;;;;;;;30.30;14.38;;;;;;;2.64;62.39;98938.02;1631252;85;21537;-45
2022/01/17 11:29:08;;;;;;;25.27;14.23;;;;;;;2.13;63.99;98931.86;1651150;84;21708;-45
2022/01/17 11:32:55;;;;;;;31.00;15.78;;;;;;;1.83;65.03;98924.18;1654078;84;21486;-45
2022/01/17 11:36:41;;;;;;;27.17;16.82;;;;;;;1.67;65.55;98920.08;1654373;84;21563;-45
2022/01/17 11:39:33;;;;;;;27.87;15.32;;;;;;;1.70;65.99;98902.95;1651020;84;21017;-44
2022/01/17 11:42:59;;;;;;;30.52;14.75;;;;;;;1.78;66.08;98899.17;1646079;84;21109;-43
2022/01/17 11:45:56;;;;;;;27.30;15.30;;;;;;;1.73;66.25;98881.06;1640257;84;21938;-43
2022/01/17 11:48:40;;;;;;;26.42;14.80;;;;;;;1.65;66.71;98874.95;1648871;84;21108;-36
2022/01/17 11:51:20;;;;;;;27.55;15.03;;;;;;;1.60;67.11;98867.15;1597589;85;21040;-43
2022/01/17 11:54:17;;;;;;;28.02;15.40;;;;;;;1.58;67.31;98858.97;1646633;85;21004;-42
2022/01/17 11:56:54;;;;;;;30.40;14.45;;;;;;;1.58;67.90;98853.81;1620277;85;21763;-43
2022/01/17 11:59:50;;;;;;;30.08;15.50;;;;;;;1.62;68.20;98871.45;1650545;84;21405;-44
2022/01/17 12:02:36;;;;;;;27.17;15.35;;;;;;;1.67;68.27;98873.67;1650986;84;21053;-37
2022/01/17 12:05:39;;;;;;;25.77;14.35;;;;;;;1.80;68.56;98850.66;1629768;84;21061;-37
2022/01/17 12:08:50;;;;;;;26.85;16.12;;;;;;;2.02;68.13;98856.91;1658323;84;21117;-37
2022/01/17 12:12:07;;;;;;;25.50;15.53;;;;;;;2.39;67.44;98857.31;1656983;84;21708;-37
2022/01/17 12:15:17;;;;;;;30.75;15.13;;;;;;;2.88;66.69;98826.73;1666132;84;21019;-38
2022/01/17 12:17:50;;;;;;;27.05;14.30;;;;;;;3.29;65.39;98834.76;1662599;84;21119;-38
2022/01/17 12:20:19;;;;;;;22.37;12.58;;;;;;;3.36;64.61;98836.94;1657190;84;21055;-36
2022/01/17 12:23:04;;;;;;;26.95;14.60;;;;;;;3.22;64.50;98821.80;1633701;84;21417;-34
2022/01/17 12:25:32;;;;;;;24.15;13.85;;;;;;;3.02;64.89;98824.27;1645112;84;21309;-36
2022/01/17 12:28:18;;;;;;;25.72;14.53;;;;;;;2.80;66.01;98834.44;1643803;84;21065;-36
2022/01/17 12:31:03;;;;;;;24.15;14.50;;;;;;;2.65;66.67;98831.72;1643083;85;21588;-36
2022/01/17 12:33:39;;;;;;;24.20;12.85;;;;;;;2.54;67.38;98807.09;1623478;85;21400;-35
2022/01/17 12:36:33;;;;;;;24.45;13.35;;;;;;;2.48;67.91;98804.45;1656031;84;21006;-37
2022/01/17 12:39:14;;;;;;;29.57;15.13;;;;;;;2.44;68.56;98817.35;1657216;84;21067;-43
2022/01/17 12:42:11;;;;;;;27.30;14.47;;;;;;;2.36;68.90;98817.26;1657253;84;21757;-42
2022/01/17 12:44:43;;;;;;;22.55;13.25;;;;;;;2.31;69.46;98819.79;1630106;85;21521;-42
2022/01/17 12:47:06;;;;;;;27.37;14.05;;;;;;;2.28;69.89;98807.30;1627750;86;21105;-41
2022/01/17 12:49:34;;;;;;;27.02;14.65;;;;;;;2.27;69.73;98797.83;1622011;86;21008;-43
2022/01/17 12:52:06;;;;;;;28.62;15.35;;;;;;;2.22;69.59;98792.62;1631547;85;21416;-43
2022/01/17 12:54:45;;;;;;;32.03;15.48;;;;;;;2.16;69.87;98793.86;1628402;85;20981;-36
2022/01/17 12:57:30;;;;;;;23.87;13.58;;;;;;;2.10;69.93;98770.58;1622526;85;21061;-44
2022/01/17 13:01:04;;;;;;;25.15;14.18;;;;;;;2.02;69.54;98776.93;1622813;85;21017;-43
2022/01/17 13:03:34;;;;;;;30.02;14.85;;;;;;;1.91;69.76;98786.70;1627748;85;21097;-36
2022/01/17 13:06:17;;;;;;;28.32;15.95;;;;;;;1.80;70.32;98787.47;1616653;86;21489;-44
2022/01/17 13:08:47;;;;;;;25.08;14.13;;;;;;;1.74;70.74;98773.61;1615245;87;21050;-44
2022/01/17 13:11:26;;;;;;;29.45;14.93;;;;;;;1.69;71.11;98758.13;1619989;86;21008;-44
2022/01/17 13:14:04;;;;;;;32.30;15.55;;;;;;;1.66;71.33;98762.37;1626404;86;21648;-44
2022/01/17 13:16:38;;;;;;;26.70;15.28;;;;;;;1.64;71.62;98755.91;1627647;86;21715;-37
2022/01/17 13:19:06;;;;;;;29.30;15.25;;;;;;;1.62;71.94;98743.83;1610648;86;21609;-37
2022/01/17 13:21:34;;;;;;;31.27;15.03;;;;;;;1.61;72.23;98739.11;1608857;86;21998;-36
2022/01/17 13:24:18;;;;;;;29.20;13.78;;;;;;;1.59;72.52;98748.12;1616255;88;21101;-37
2022/01/17 13:26:56;;;;;;;23.95;14.00;;;;;;;1.60;72.83;98774.34;1623114;86;21460;-36
2022/01/17 13:29:23;;;;;;;26.70;14.25;;;;;;;1.60;72.84;98751.13;1622887;86;21077;-44
2022/01/17 13:31:50;;;;;;;22.82;13.50;;;;;;;1.60;73.14;98739.96;1629129;86;21093;-37
2022/01/17 13:34:25;;;;;;;26.20;13.95;;;;;;;1.59;73.42;98741.67;1633323;86;21006;-37
2022/01/17 13:36:53;;;;;;;32.33;15.83;;;;;;;1.60;73.48;98747.27;1625120;86;21089;-44
2022/01/17 13:39:24;;;;;;;24.95;14.65;;;;;;;1.60;73.69;98730.51;1619204;86;21480;-44
2022/01/17 13:42:00;;;;;;;25.95;13.40;;;;;;;1.60;73.88;98733.09;1612352;88;21637;-37
2022/01/17 13:44:31;;;;;;;26.37;14.60;;;;;;;1.62;74.01;98736.96;1623667;86;21019;-43
2022/01/17 13:47:13;;;;;;;25.37;14.87;;;;;;;1.64;74.00;98715.09;1655065;85;21073;-44
2022/01/17 13:49:48;;;;;;;29.32;14.63;;;;;;;1.65;73.95;98694.90;1640463;85;21688;-44
2022/01/17 13:52:18;;;;;;;29.07;14.87;;;;;;;1.64;74.30;98673.41;1642622;85;21424;-37
2022/01/17 13:54:47;;;;;;;25.32;14.58;;;;;;;1.62;74.32;98651.02;1641430;85;21525;-37
2022/01/17 13:57:16;;;;;;;26.33;14.98;;;;;;;1.62;74.63;98652.31;1651194;85;21049;-37
2022/01/17 14:00:04;;;;;;;28.85;15.60;;;;;;;1.60;74.83;98638.13;1647019;85;21002;-38
2022/01/17 14:02:35;;;;;;;25.27;13.55;;;;;;;1.59;75.03;98639.84;1647661;85;21097;-37
2022/01/17 14:05:06;;;;;;;30.05;13.78;;;;;;;1.61;75.10;98629.54;1648182;86;21321;-37
2022/01/17 14:07:33;;;;;;;25.23;14.50;;;;;;;1.61;75.10;98616.64;1641610;85;21121;-44
2022/01/17 14:10:00;;;;;;;24.20;12.82;;;;;;;1.62;75.20;98609.34;1644101;85;21034;-37
2022/01/17 14:12:32;;;;;;;24.05;13.18;;;;;;;1.62;75.25;98605.91;1641828;85;21141;-37
2022/01/17 14:14:59;;;;;;;21.10;13.15;;;;;;;1.63;75.36;98616.69;1641847;85;21020;-43
2022/01/17 14:17:30;;;;;;;25.35;12.98;;;;;;;1.63;75.55;98612.39;1648441;85;21503;-37
2022/01/17 14:20:18;;;;;;;22.87;12.70;;;;;;;1.63;75.70;98606.37;1637839;85;21465;-37
2022/01/17 14:22:47;;;;;;;22.20;13.25;;;;;;;1.64;75.83;98604.23;1639061;85;21366;-44
2022/01/17 14:25:22;;;;;;;24.72;12.13;;;;;;;1.64;75.99;98593.91;1639190;85;21037;-44
2022/01/17 14:28:01;;;;;;;24.72;12.47;;;;;;;1.65;76.21;98594.34;1612025;87;21093;-37
2022/01/17 14:30:32;;;;;;;26.33;12.63;;;;;;;1.65;76.16;98585.33;1646976;85;20977;-38
2022/01/17 14:33:17;;;;;;;23.35;13.08;;;;;;;1.65;76.21;98577.16;1646883;85;21061;-37
2022/01/17 14:36:14;;;;;;;22.15;13.40;;;;;;;1.66;76.22;98570.28;1648871;85;21441;-44
2022/01/17 14:38:50;;;;;;;22.65;12.35;;;;;;;1.66;76.24;98580.17;1636564;85;21589;-37
2022/01/17 14:41:35;;;;;;;19.17;11.50;;;;;;;1.68;76.24;98582.75;1642611;85;21039;-44
2022/01/17 14:44:14;;;;;;;24.60;12.33;;;;;;;1.69;76.14;98580.21;1644605;85;21046;-37
2022/01/17 14:46:50;;;;;;;21.35;11.83;;;;;;;1.72;76.12;98574.20;1644112;85;21081;-37
2022/01/17 14:49:20;;;;;;;23.15;11.75;;;;;;;1.72;76.08;98569.91;1635961;87;21077;-44
